createdAt,value
2022-09-01T00:01:29.083Z,25.44
2022-09-01T00:04:04.291Z,25.52
2022-09-01T00:06:34.875Z,25.45
2022-09-01T00:09:04.112Z,25.14
2022-09-01T00:11:34.117Z,25.31
2022-09-01T00:14:04.629Z,25.16
2022-09-01T00:16:31.960Z,24.59
2022-09-01T00:19:01.899Z,24.80
2022-09-01T00:21:30.934Z,24.68
2022-09-01T00:23:59.836Z,24.75
2022-09-01T00:26:27.575Z,24.85
2022-09-01T00:28:58.084Z,25.08
2022-09-01T00:31:30.612Z,25.25
2022-09-01T00:33:58.120Z,25.27
2022-09-01T00:36:28.528Z,25.35
2022-09-01T00:38:57.081Z,25.33
2022-09-01T00:41:26.100Z,25.42
2022-09-01T00:43:57.986Z,25.26
2022-09-01T00:46:30.308Z,25.32
2022-09-01T00:49:01.836Z,25.09
2022-09-01T00:51:29.736Z,25.25
2022-09-01T00:53:57.444Z,25.17
2022-09-01T00:56:27.350Z,24.78
2022-09-01T00:58:57.078Z,24.60
2022-09-01T01:01:28.005Z,24.83
2022-09-01T01:04:02.230Z,24.47
2022-09-01T01:06:33.071Z,24.69
2022-09-01T01:09:02.507Z,24.37
2022-09-01T01:11:32.452Z,24.68
2022-09-01T01:14:05.881Z,24.95
2022-09-01T01:16:35.466Z,24.96
2022-09-01T01:19:04.187Z,25.01
2022-09-01T01:21:58.152Z,25.08
2022-09-01T01:24:29.648Z,24.95
2022-09-01T01:27:00.223Z,24.51
2022-09-01T01:29:32.346Z,24.58
2022-09-01T01:32:02.239Z,24.63
2022-09-01T01:34:31.965Z,24.73
2022-09-01T01:37:03.512Z,24.92
2022-09-01T01:39:36.969Z,24.91
2022-09-01T01:42:07.836Z,24.90
2022-09-01T01:44:42.671Z,24.84
2022-09-01T01:47:13.405Z,24.86
2022-09-01T01:49:55.550Z,25.02
2022-09-01T01:52:26.894Z,25.17
2022-09-01T01:55:00.097Z,25.21
2022-09-01T01:57:33.099Z,25.19
2022-09-01T02:00:00.687Z,25.02
2022-09-01T02:02:30.552Z,25.05
2022-09-01T02:04:59.351Z,24.99
2022-09-01T02:07:33.143Z,25.14
2022-09-01T02:10:02.111Z,25.19
2022-09-01T02:12:31.687Z,24.99
2022-09-01T02:15:02.041Z,25.05
2022-09-01T02:17:31.097Z,25.16
2022-09-01T02:19:58.594Z,25.14
2022-09-01T02:22:26.394Z,25.07
2022-09-01T02:25:21.115Z,25.00
2022-09-01T02:27:55.539Z,25.15
2022-09-01T02:30:23.947Z,25.21
2022-09-01T02:32:51.498Z,25.23
2022-09-01T02:35:19.221Z,25.19
2022-09-01T02:37:55.623Z,25.07
2022-09-01T02:40:31.582Z,25.08
2022-09-01T02:43:00.432Z,25.14
2022-09-01T02:45:29.722Z,25.15
2022-09-01T02:52:21.551Z,25.04
2022-09-01T02:54:49.847Z,24.91
2022-09-01T02:57:18.870Z,24.68
2022-09-01T02:59:47.618Z,24.85
2022-09-01T03:02:15.084Z,24.63
2022-09-01T03:04:43.313Z,24.47
2022-09-01T03:07:10.884Z,24.66
2022-09-01T03:09:41.716Z,24.61
2022-09-01T03:12:09.170Z,24.68
2022-09-01T03:14:36.801Z,24.79
2022-09-01T03:17:04.380Z,24.88
2022-09-01T03:19:40.339Z,24.79
2022-09-01T03:22:10.160Z,24.89
2022-09-01T03:24:39.272Z,24.86
2022-09-01T03:27:09.018Z,24.76
2022-09-01T03:29:39.337Z,24.72
2022-09-01T03:32:10.528Z,24.51
2022-09-01T03:34:40.395Z,24.54
2022-09-01T03:37:08.221Z,24.30
2022-09-01T03:39:38.122Z,24.32
2022-09-01T03:42:08.837Z,24.16
2022-09-01T03:44:40.245Z,24.33
2022-09-01T03:47:12.699Z,24.12
2022-09-01T03:49:43.197Z,24.38
2022-09-01T03:52:13.539Z,24.58
2022-09-01T03:54:40.931Z,24.65
2022-09-01T03:57:11.567Z,24.68
2022-09-01T03:59:43.376Z,24.40
2022-09-01T04:02:11.488Z,24.27
2022-09-01T04:04:39.780Z,24.42
2022-09-01T04:07:09.699Z,24.38
2022-09-01T04:09:43.943Z,24.36
2022-09-01T04:12:15.844Z,24.51
2022-09-01T04:14:48.175Z,24.46
2022-09-01T04:17:37.935Z,24.33
2022-09-01T04:20:08.715Z,24.39
2022-09-01T04:22:38.574Z,24.49
2022-09-01T04:25:06.780Z,24.36
2022-09-01T04:27:40.492Z,24.35
2022-09-01T04:30:11.734Z,23.96
2022-09-01T04:32:46.967Z,23.80
2022-09-01T04:35:17.377Z,23.90
2022-09-01T04:37:47.705Z,23.58
2022-09-01T04:40:15.931Z,23.16
2022-09-01T04:42:45.274Z,22.91
2022-09-01T04:45:20.805Z,23.05
2022-09-01T04:47:49.950Z,22.93
2022-09-01T04:50:23.307Z,22.93
2022-09-01T04:53:16.262Z,23.34
2022-09-01T04:55:49.686Z,23.27
2022-09-01T04:58:18.798Z,23.17
2022-09-01T05:00:52.571Z,23.27
2022-09-01T05:03:26.334Z,23.21
2022-09-01T05:06:04.492Z,23.38
2022-09-01T05:08:36.625Z,23.20
2022-09-01T05:11:11.997Z,23.46
2022-09-01T05:13:48.240Z,23.90
2022-09-01T05:16:25.071Z,23.89
2022-09-01T05:18:57.314Z,23.83
2022-09-01T05:21:32.079Z,23.74
2022-09-01T05:24:01.655Z,23.27
2022-09-01T05:26:31.253Z,23.49
2022-09-01T05:28:59.968Z,23.77
2022-09-01T05:31:29.300Z,23.79
2022-09-01T05:34:01.912Z,23.43
2022-09-01T05:36:33.424Z,23.70
2022-09-01T05:39:04.969Z,23.93
2022-09-01T05:41:35.771Z,24.12
2022-09-01T05:44:08.269Z,24.14
2022-09-01T05:46:39.565Z,23.99
2022-09-01T05:49:14.817Z,24.01
2022-09-01T05:51:45.661Z,23.96
2022-09-01T05:54:16.553Z,23.49
2022-09-01T05:56:44.866Z,23.56
2022-09-01T05:59:25.872Z,23.49
2022-09-01T06:01:58.733Z,23.49
2022-09-01T06:04:27.089Z,23.27
2022-09-01T06:07:06.095Z,23.36
2022-09-01T06:09:39.751Z,23.55
2022-09-01T06:12:07.854Z,23.44
2022-09-01T06:14:35.286Z,23.50
2022-09-01T06:17:03.464Z,23.59
2022-09-01T06:19:37.012Z,23.48
2022-09-01T06:22:05.690Z,23.45
2022-09-01T06:24:33.245Z,23.31
2022-09-01T06:27:01.439Z,23.41
2022-09-01T06:29:32.158Z,23.63
2022-09-01T06:32:02.408Z,23.61
2022-09-01T06:34:30.026Z,23.61
2022-09-01T06:36:59.815Z,23.87
2022-09-01T06:39:31.783Z,23.80
2022-09-01T06:42:05.764Z,23.90
2022-09-01T06:44:46.132Z,23.88
2022-09-01T06:47:17.181Z,23.81
2022-09-01T06:49:51.772Z,24.04
2022-09-01T06:52:24.614Z,24.04
2022-09-01T06:54:54.109Z,24.01
2022-09-01T07:00:18.862Z,23.75
2022-09-01T07:02:48.296Z,23.70
2022-09-01T07:09:19.066Z,23.81
2022-09-01T07:14:23.920Z,23.84
2022-09-01T07:17:22.347Z,23.95
2022-09-01T07:19:51.260Z,23.82
2022-09-01T07:22:35.985Z,24.04
2022-09-01T07:25:13.034Z,24.15
2022-09-01T07:28:06.598Z,24.05
2022-09-01T07:30:40.771Z,23.78
2022-09-01T07:45:28.997Z,24.56
2022-09-01T07:48:06.619Z,24.57
2022-09-01T07:53:34.663Z,24.43
2022-09-01T07:56:09.674Z,24.33
2022-09-01T07:58:44.971Z,24.32
2022-09-01T08:01:18.975Z,24.22
2022-09-01T08:03:50.142Z,24.42
2022-09-01T08:06:41.175Z,24.40
2022-09-01T08:09:11.464Z,24.35
2022-09-01T08:12:01.116Z,24.44
2022-09-01T08:14:33.493Z,24.48
2022-09-01T08:17:16.944Z,24.39
2022-09-01T08:19:47.139Z,24.37
2022-09-01T08:22:24.393Z,24.38
2022-09-01T08:25:00.909Z,24.35
2022-09-01T08:27:30.697Z,24.41
2022-09-01T08:30:00.489Z,24.57
2022-09-01T08:32:35.738Z,24.44
2022-09-01T08:35:06.726Z,24.39
2022-09-01T08:37:39.232Z,24.41
2022-09-01T08:40:11.189Z,24.43
2022-09-01T08:42:53.865Z,24.57
2022-09-01T08:45:28.349Z,24.58
2022-09-01T08:48:36.792Z,24.84
2022-09-01T08:50:44.604Z,25.10
2022-09-01T08:53:52.692Z,25.29
2022-09-01T08:56:23.239Z,25.65
2022-09-01T08:58:51.602Z,25.97
2022-09-01T09:01:57.279Z,25.97
2022-09-01T09:04:53.377Z,25.34
2022-09-01T09:07:39.525Z,25.28
2022-09-01T09:10:29.653Z,25.40
2022-09-01T09:12:57.802Z,25.36
2022-09-01T09:15:43.221Z,25.45
2022-09-01T09:18:34.467Z,25.09
2022-09-01T09:21:07.683Z,25.12
2022-09-01T09:23:36.853Z,25.33
2022-09-01T09:26:08.341Z,25.50
2022-09-01T09:28:40.256Z,25.14
2022-09-01T09:31:26.928Z,25.27
2022-09-01T09:33:55.306Z,25.27
2022-09-01T09:36:25.419Z,25.40
2022-09-01T09:39:03.900Z,25.62
2022-09-01T09:41:34.257Z,25.42
2022-09-01T09:44:23.142Z,25.37
2022-09-01T09:46:54.000Z,25.49
2022-09-01T09:49:34.914Z,26.22
2022-09-01T09:52:08.825Z,26.86
2022-09-01T09:54:37.777Z,26.79
2022-09-01T09:57:05.986Z,26.15
2022-09-01T10:00:02.074Z,25.95
2022-09-01T10:02:45.005Z,25.82
2022-09-01T10:09:23.266Z,25.77
2022-09-01T10:12:17.998Z,26.01
2022-09-01T10:14:53.466Z,25.75
2022-09-01T10:18:20.875Z,26.34
2022-09-01T10:21:11.184Z,26.27
2022-09-01T10:23:41.947Z,26.28
2022-09-01T10:26:14.503Z,26.76
2022-09-01T10:28:49.944Z,26.84
2022-09-01T10:31:18.638Z,27.04
2022-09-01T10:33:51.371Z,26.80
2022-09-01T10:36:24.462Z,27.04
2022-09-01T10:39:04.424Z,27.34
2022-09-01T10:46:05.665Z,26.72
2022-09-01T10:49:34.735Z,27.00
2022-09-01T10:56:53.994Z,28.28
2022-09-01T10:59:37.411Z,27.65
2022-09-01T11:02:27.739Z,27.60
2022-09-01T11:06:13.469Z,27.51
2022-09-01T11:13:06.779Z,27.39
2022-09-01T11:15:35.747Z,27.80
2022-09-01T11:21:48.363Z,27.92
2022-09-01T11:28:36.714Z,30.21
2022-09-01T11:35:24.009Z,29.74
2022-09-01T11:37:53.233Z,30.59
2022-09-01T11:40:26.022Z,30.94
2022-09-01T11:44:12.986Z,33.08
2022-09-01T11:46:43.460Z,33.37
2022-09-01T11:50:03.453Z,33.79
2022-09-01T11:52:36.725Z,33.28
2022-09-01T11:55:05.575Z,32.55
2022-09-01T11:58:02.248Z,34.53
2022-09-01T12:00:34.045Z,33.54
2022-09-01T12:03:02.055Z,30.64
2022-09-01T12:06:00.459Z,29.98
2022-09-01T12:08:30.813Z,30.02
2022-09-01T12:11:05.993Z,29.40
2022-09-01T12:13:33.746Z,29.79
2022-09-01T12:16:17.913Z,29.73
2022-09-01T12:18:50.111Z,29.21
2022-09-01T12:21:24.250Z,29.19
2022-09-01T12:23:55.245Z,30.38
2022-09-01T12:26:29.547Z,32.02
2022-09-01T12:29:00.522Z,31.83
2022-09-01T12:31:31.210Z,30.68
2022-09-01T12:34:26.684Z,33.29
2022-09-01T12:37:08.518Z,31.41
2022-09-01T12:39:39.971Z,32.11
2022-09-01T12:42:12.508Z,31.52
2022-09-01T12:44:40.176Z,29.68
2022-09-01T12:47:12.260Z,30.32
2022-09-01T12:49:52.035Z,29.44
2022-09-01T12:52:20.444Z,30.83
2022-09-01T12:54:48.816Z,32.68
2022-09-01T12:57:32.049Z,34.03
2022-09-01T13:00:26.286Z,34.13
2022-09-01T13:03:14.345Z,33.98
2022-09-01T13:05:42.901Z,30.32
2022-09-01T13:08:18.377Z,29.82
2022-09-01T13:14:31.533Z,29.55
2022-09-01T13:16:59.451Z,30.58
2022-09-01T13:20:19.235Z,32.33
2022-09-01T13:22:47.238Z,32.62
2022-09-01T13:25:20.526Z,30.06
2022-09-01T13:28:40.898Z,28.77
2022-09-01T13:34:10.808Z,28.25
2022-09-01T13:36:52.112Z,27.77
2022-09-01T13:39:21.121Z,27.89
2022-09-01T13:41:49.441Z,27.69
2022-09-01T13:44:22.090Z,27.07
2022-09-01T13:50:06.111Z,26.80
2022-09-01T13:52:33.833Z,26.86
2022-09-01T13:55:01.840Z,27.07
2022-09-01T13:57:36.531Z,26.51
2022-09-01T14:00:05.749Z,26.47
2022-09-01T14:02:50.169Z,26.71
2022-09-01T14:05:20.712Z,26.77
2022-09-01T14:07:49.116Z,26.82
2022-09-01T14:10:17.715Z,26.86
2022-09-01T14:12:47.536Z,26.61
2022-09-01T14:15:18.400Z,26.75
2022-09-01T14:17:47.972Z,26.72
2022-09-01T14:20:18.327Z,26.65
2022-09-01T14:22:49.601Z,26.83
2022-09-01T14:25:18.953Z,26.64
2022-09-01T14:27:48.612Z,26.44
2022-09-01T14:30:31.185Z,26.64
2022-09-01T14:33:01.745Z,26.94
2022-09-01T14:35:33.345Z,26.81
2022-09-01T14:38:08.696Z,26.96
2022-09-01T14:40:38.081Z,26.89
2022-09-01T14:43:06.709Z,26.89
2022-09-01T14:45:39.855Z,26.63
2022-09-01T14:48:09.964Z,26.51
2022-09-01T14:50:40.127Z,26.48
2022-09-01T14:59:41.191Z,27.04
2022-09-01T15:02:12.468Z,27.17
2022-09-01T15:04:40.486Z,27.16
2022-09-01T15:07:08.319Z,26.93
2022-09-01T15:09:40.706Z,27.03
2022-09-01T15:12:09.653Z,27.13
2022-09-01T15:14:37.927Z,26.82
2022-09-01T15:17:07.945Z,26.96
2022-09-01T15:19:36.589Z,27.05
2022-09-01T15:22:04.746Z,26.69
2022-09-01T15:24:35.601Z,26.87
2022-09-01T15:27:06.962Z,26.96
2022-09-01T15:29:59.585Z,27.02
2022-09-01T15:32:29.661Z,26.70
2022-09-01T15:34:59.590Z,26.51
2022-09-01T15:37:27.640Z,26.53
2022-09-01T15:39:55.641Z,26.59
2022-09-01T15:42:25.648Z,26.75
2022-09-01T15:44:53.197Z,26.73
2022-09-01T15:47:21.714Z,26.68
2022-09-01T15:49:49.367Z,26.76
2022-09-01T15:52:22.104Z,26.71
2022-09-01T15:54:51.794Z,26.29
2022-09-01T15:57:19.289Z,26.37
2022-09-01T15:59:51.658Z,26.41
2022-09-01T16:02:21.579Z,26.46
2022-09-01T16:04:51.419Z,26.36
2022-09-01T16:07:20.220Z,26.34
2022-09-01T16:09:47.749Z,26.24
2022-09-01T16:12:15.323Z,26.22
2022-09-01T16:14:45.152Z,25.99
2022-09-01T16:17:17.211Z,25.84
2022-09-01T16:19:55.083Z,25.87
2022-09-01T16:22:25.493Z,26.09
2022-09-01T16:24:54.611Z,25.99
2022-09-01T16:27:25.809Z,25.83
2022-09-01T16:29:53.907Z,25.93
2022-09-01T16:32:23.494Z,26.06
2022-09-01T16:34:53.687Z,25.92
2022-09-01T16:37:21.394Z,25.78
2022-09-01T16:39:50.758Z,25.83
2022-09-01T16:42:28.140Z,25.86
2022-09-01T16:44:58.545Z,25.80
2022-09-01T16:47:34.593Z,25.82
2022-09-01T16:50:05.446Z,25.54
2022-09-01T16:52:37.611Z,25.47
2022-09-01T16:55:22.736Z,25.48
2022-09-01T16:57:59.010Z,25.52
2022-09-01T17:00:30.968Z,25.47
2022-09-01T17:03:01.448Z,25.36
2022-09-01T17:05:31.198Z,25.34
2022-09-01T17:08:10.472Z,25.26
2022-09-01T17:10:55.080Z,25.29
2022-09-01T17:13:32.388Z,25.21
2022-09-01T17:16:26.478Z,25.29
2022-09-01T17:19:00.795Z,25.29
2022-09-01T17:21:32.453Z,25.03
2022-09-01T17:24:12.510Z,25.30
2022-09-01T17:26:40.667Z,25.12
2022-09-01T17:29:16.003Z,25.21
2022-09-01T17:31:53.182Z,25.09
2022-09-01T17:34:40.208Z,25.30
2022-09-01T17:37:29.135Z,25.11
2022-09-01T17:39:56.612Z,24.98
2022-09-01T17:42:28.034Z,24.87
2022-09-01T17:45:00.626Z,24.87
2022-09-01T17:47:40.897Z,24.81
2022-09-01T17:50:21.216Z,24.70
2022-09-01T17:52:52.364Z,24.68
2022-09-01T17:55:26.322Z,24.79
2022-09-01T17:57:58.533Z,24.79
2022-09-01T18:00:25.784Z,24.62
2022-09-01T18:02:53.240Z,24.63
2022-09-01T18:05:24.671Z,24.45
2022-09-01T18:07:57.269Z,24.43
2022-09-01T18:10:44.932Z,24.44
2022-09-01T18:13:42.513Z,24.26
2022-09-01T18:16:20.272Z,24.32
2022-09-01T18:18:49.029Z,24.35
2022-09-01T18:21:20.705Z,24.33
2022-09-01T18:23:49.761Z,24.18
2022-09-01T18:26:38.157Z,24.19
2022-09-01T18:29:05.945Z,23.95
2022-09-01T18:31:34.150Z,24.02
2022-09-01T18:34:20.032Z,24.09
2022-09-01T18:36:53.122Z,23.88
2022-09-01T18:39:33.105Z,23.90
2022-09-01T18:42:19.064Z,23.84
2022-09-01T18:44:46.362Z,23.75
2022-09-01T18:47:14.556Z,23.59
2022-09-01T18:49:52.440Z,23.87
2022-09-01T18:52:39.295Z,23.72
2022-09-01T18:55:16.427Z,23.80
2022-09-01T18:57:43.870Z,23.79
2022-09-01T19:00:18.961Z,23.84
2022-09-01T19:02:49.877Z,23.91
2022-09-01T19:05:31.428Z,24.00
2022-09-01T19:08:04.650Z,23.95
2022-09-01T19:10:41.449Z,24.02
2022-09-01T19:13:14.917Z,24.32
2022-09-01T19:16:14.051Z,24.15
2022-09-01T19:18:41.397Z,24.28
2022-09-01T19:21:27.952Z,24.17
2022-09-01T19:24:13.234Z,24.12
2022-09-01T19:26:42.743Z,23.99
2022-09-01T19:29:19.001Z,24.16
2022-09-01T19:31:50.577Z,23.98
2022-09-01T19:34:19.495Z,23.76
2022-09-01T19:36:54.417Z,23.97
2022-09-01T19:39:25.785Z,23.94
2022-09-01T19:41:54.179Z,23.72
2022-09-01T19:44:42.224Z,23.83
2022-09-01T19:47:13.773Z,24.01
2022-09-01T19:49:47.061Z,24.27
2022-09-01T19:52:16.084Z,24.35
2022-09-01T19:54:52.251Z,24.00
2022-09-01T19:57:23.771Z,24.03
2022-09-01T19:59:54.217Z,23.97
2022-09-01T20:02:30.418Z,23.86
2022-09-01T20:05:08.000Z,23.76
2022-09-01T20:07:49.530Z,23.72
2022-09-01T20:10:27.536Z,23.96
2022-09-01T20:12:57.887Z,24.05
2022-09-01T20:15:35.497Z,23.90
2022-09-01T20:18:04.345Z,24.02
2022-09-01T20:20:38.201Z,24.07
2022-09-01T20:23:10.686Z,24.17
2022-09-01T20:25:41.459Z,24.19
2022-09-01T20:28:18.047Z,23.99
2022-09-01T20:30:51.137Z,23.99
2022-09-01T20:33:18.655Z,23.80
2022-09-01T20:35:49.077Z,23.87
2022-09-01T20:38:43.101Z,24.02
2022-09-01T20:41:12.686Z,24.24
2022-09-01T20:43:41.395Z,24.17
2022-09-01T20:46:08.868Z,23.95
2022-09-01T20:48:40.030Z,23.76
2022-09-01T20:51:27.806Z,23.75
2022-09-01T20:54:01.237Z,23.86
2022-09-01T20:56:40.750Z,23.79
2022-09-01T20:59:16.879Z,23.56
2022-09-01T21:01:49.377Z,23.72
2022-09-01T21:04:41.200Z,23.64
2022-09-01T21:07:08.531Z,23.65
2022-09-01T21:09:38.924Z,23.92
2022-09-01T21:12:24.731Z,24.04
2022-09-01T21:15:01.909Z,24.30
2022-09-01T21:17:48.960Z,24.23
2022-09-01T21:20:16.309Z,24.16
2022-09-01T21:22:43.696Z,24.15
2022-09-01T21:25:11.125Z,24.11
2022-09-01T21:27:43.881Z,24.27
2022-09-01T21:30:12.534Z,24.12
2022-09-01T21:32:39.946Z,24.13
2022-09-01T21:35:08.707Z,24.20
2022-09-01T21:37:36.120Z,23.93
2022-09-01T21:40:03.984Z,23.93
2022-09-01T21:42:52.275Z,23.93
2022-09-01T21:45:19.704Z,24.04
2022-09-01T21:47:49.447Z,24.09
2022-09-01T21:50:17.659Z,23.95
2022-09-01T21:52:45.225Z,23.92
2022-09-01T21:55:12.543Z,23.81
2022-09-01T21:57:40.139Z,23.51
2022-09-01T22:00:11.251Z,23.78
2022-09-01T22:02:42.533Z,23.36
2022-09-01T22:05:10.078Z,23.47
2022-09-01T22:07:40.418Z,23.38
2022-09-01T22:10:11.161Z,23.45
2022-09-01T22:12:42.071Z,23.55
2022-09-01T22:15:12.648Z,23.45
2022-09-01T22:17:39.942Z,23.48
2022-09-01T22:20:08.497Z,23.70
2022-09-01T22:22:35.804Z,23.71
2022-09-01T22:25:07.812Z,23.50
2022-09-01T22:27:35.115Z,23.92
2022-09-01T22:30:06.997Z,24.08
2022-09-01T22:32:36.316Z,23.96
2022-09-01T22:35:04.315Z,23.81
2022-09-01T22:37:31.698Z,23.71
2022-09-01T22:40:06.968Z,23.55
2022-09-01T22:42:35.264Z,23.78
2022-09-01T22:45:05.699Z,23.75
2022-09-01T22:47:37.109Z,23.49
2022-09-01T22:50:06.639Z,23.66
2022-09-01T22:52:35.672Z,23.48
2022-09-01T22:55:03.415Z,23.56
2022-09-01T22:57:30.735Z,23.32
2022-09-01T22:59:57.981Z,23.10
2022-09-01T23:02:25.423Z,23.36
2022-09-01T23:04:52.932Z,23.42
2022-09-01T23:07:20.311Z,23.83
2022-09-01T23:09:47.664Z,23.72
2022-09-01T23:12:15.727Z,24.00
2022-09-01T23:14:42.984Z,24.15
2022-09-01T23:17:10.258Z,24.08
2022-09-01T23:19:37.600Z,23.86
2022-09-01T23:22:31.227Z,23.79
2022-09-01T23:24:58.545Z,23.80
2022-09-01T23:27:25.804Z,23.93
2022-09-01T23:29:53.035Z,24.25
2022-09-01T23:32:20.354Z,23.67
2022-09-01T23:34:53.522Z,23.72
2022-09-01T23:37:20.759Z,23.38
2022-09-01T23:39:48.448Z,23.69
2022-09-01T23:42:16.961Z,23.83
2022-09-01T23:45:07.145Z,23.82
2022-09-01T23:47:35.630Z,23.60
2022-09-01T23:50:05.831Z,23.58
2022-09-01T23:52:33.300Z,23.61
2022-09-01T23:55:01.157Z,23.78
2022-09-01T23:57:28.509Z,23.50
2022-09-01T23:59:57.003Z,23.51
